sensor_id;sensor_type;location;lat;lon;timestamp;temperature;humidity
26049;DHT22;13822;51.568;5.086;2023-03-01T00:04:47;0.90;93.00
26049;DHT22;13822;51.568;5.086;2023-03-01T00:09:54;0.90;93.20
26049;DHT22;13822;51.568;5.086;2023-03-01T00:14:56;0.80;93.20
26049;DHT22;13822;51.568;5.086;2023-03-01T00:20:07;0.70;93.40
26049;DHT22;13822;51.568;5.086;2023-03-01T00:25:15;0.70;93.60
26049;DHT22;13822;51.568;5.086;2023-03-01T00:30:22;0.70;94.00
26049;DHT22;13822;51.568;5.086;2023-03-01T00:35:51;0.60;94.50
26049;DHT22;13822;51.568;5.086;2023-03-01T00:41:05;0.60;94.40
26049;DHT22;13822;51.568;5.086;2023-03-01T00:46:43;0.60;94.80
26049;DHT22;13822;51.568;5.086;2023-03-01T00:52:09;0.50;95.30
26049;DHT22;13822;51.568;5.086;2023-03-01T00:57:12;0.50;95.50
26049;DHT22;13822;51.568;5.086;2023-03-01T01:02:37;0.40;95.60
26049;DHT22;13822;51.568;5.086;2023-03-01T01:07:51;0.40;96.00
26049;DHT22;13822;51.568;5.086;2023-03-01T01:13:08;0.40;96.30
26049;DHT22;13822;51.568;5.086;2023-03-01T01:18:12;0.30;96.60
26049;DHT22;13822;51.568;5.086;2023-03-01T01:23:16;0.30;96.90
26049;DHT22;13822;51.568;5.086;2023-03-01T01:28:21;0.30;97.20
26049;DHT22;13822;51.568;5.086;2023-03-01T01:33:41;0.20;97.60
26049;DHT22;13822;51.568;5.086;2023-03-01T01:38:52;0.30;97.90
26049;DHT22;13822;51.568;5.086;2023-03-01T01:49:49;0.20;98.50
26049;DHT22;13822;51.568;5.086;2023-03-01T02:00:25;0.10;99.00
26049;DHT22;13822;51.568;5.086;2023-03-01T02:05:42;0.10;99.50
26049;DHT22;13822;51.568;5.086;2023-03-01T02:10:52;0.10;99.90
26049;DHT22;13822;51.568;5.086;2023-03-01T02:15:57;0.00;99.90
26049;DHT22;13822;51.568;5.086;2023-03-01T02:21:13;0.00;99.90
26049;DHT22;13822;51.568;5.086;2023-03-01T02:26:20;0.00;99.90
26049;DHT22;13822;51.568;5.086;2023-03-01T02:31:33;0.00;99.90
26049;DHT22;13822;51.568;5.086;2023-03-01T02:36:46;-0.10;99.90
26049;DHT22;13822;51.568;5.086;2023-03-01T02:41:51;-0.10;99.90
26049;DHT22;13822;51.568;5.086;2023-03-01T02:47:01;-0.20;99.90
26049;DHT22;13822;51.568;5.086;2023-03-01T02:52:22;-0.20;99.90
26049;DHT22;13822;51.568;5.086;2023-03-01T02:57:49;-0.20;99.90
26049;DHT22;13822;51.568;5.086;2023-03-01T03:02:52;-0.30;99.90
26049;DHT22;13822;51.568;5.086;2023-03-01T03:08:00;-0.30;99.90
26049;DHT22;13822;51.568;5.086;2023-03-01T03:13:07;-0.40;99.90
26049;DHT22;13822;51.568;5.086;2023-03-01T03:18:16;-0.40;99.90
26049;DHT22;13822;51.568;5.086;2023-03-01T03:23:21;-0.50;99.90
26049;DHT22;13822;51.568;5.086;2023-03-01T03:28:28;-0.50;99.90
26049;DHT22;13822;51.568;5.086;2023-03-01T03:33:30;-0.50;99.90
26049;DHT22;13822;51.568;5.086;2023-03-01T03:38:36;-0.50;99.90
26049;DHT22;13822;51.568;5.086;2023-03-01T03:43:41;-0.60;99.90
26049;DHT22;13822;51.568;5.086;2023-03-01T03:49:08;-0.60;99.90
26049;DHT22;13822;51.568;5.086;2023-03-01T03:54:10;-0.70;99.90
26049;DHT22;13822;51.568;5.086;2023-03-01T06:39:42;-1.10;99.90
26049;DHT22;13822;51.568;5.086;2023-03-01T06:44:44;-1.10;99.90
26049;DHT22;13822;51.568;5.086;2023-03-01T06:49:47;-1.00;99.90
26049;DHT22;13822;51.568;5.086;2023-03-01T06:54:49;-1.00;99.90
26049;DHT22;13822;51.568;5.086;2023-03-01T06:59:51;-1.00;99.90
26049;DHT22;13822;51.568;5.086;2023-03-01T07:04:53;-1.00;99.90
26049;DHT22;13822;51.568;5.086;2023-03-01T07:09:54;-1.00;99.90
26049;DHT22;13822;51.568;5.086;2023-03-01T07:14:56;-1.00;99.90
26049;DHT22;13822;51.568;5.086;2023-03-01T07:19:58;-1.00;99.90
26049;DHT22;13822;51.568;5.086;2023-03-01T07:25:00;-0.90;99.90
26049;DHT22;13822;51.568;5.086;2023-03-01T07:30:02;-0.90;99.90
26049;DHT22;13822;51.568;5.086;2023-03-01T07:35:04;-0.90;99.90
26049;DHT22;13822;51.568;5.086;2023-03-01T07:40:07;-0.80;99.90
26049;DHT22;13822;51.568;5.086;2023-03-01T07:45:09;-0.80;99.90
26049;DHT22;13822;51.568;5.086;2023-03-01T07:50:12;-0.70;99.90
26049;DHT22;13822;51.568;5.086;2023-03-01T07:55:15;-0.70;99.90
26049;DHT22;13822;51.568;5.086;2023-03-01T08:00:17;-0.60;99.90
26049;DHT22;13822;51.568;5.086;2023-03-01T08:05:19;-0.40;99.90
26049;DHT22;13822;51.568;5.086;2023-03-01T08:10:23;-0.40;99.90
26049;DHT22;13822;51.568;5.086;2023-03-01T08:15:25;-0.30;99.90
26049;DHT22;13822;51.568;5.086;2023-03-01T08:20:27;-0.10;99.90
26049;DHT22;13822;51.568;5.086;2023-03-01T08:25:29;0.00;99.90
26049;DHT22;13822;51.568;5.086;2023-03-01T08:30:31;0.10;99.90
26049;DHT22;13822;51.568;5.086;2023-03-01T08:35:33;0.30;99.90
26049;DHT22;13822;51.568;5.086;2023-03-01T08:40:35;0.40;99.90
26049;DHT22;13822;51.568;5.086;2023-03-01T08:45:37;0.60;99.90
26049;DHT22;13822;51.568;5.086;2023-03-01T08:50:39;0.80;99.90
26049;DHT22;13822;51.568;5.086;2023-03-01T08:55:42;0.90;99.90
26049;DHT22;13822;51.568;5.086;2023-03-01T09:00:44;1.10;99.90
26049;DHT22;13822;51.568;5.086;2023-03-01T09:05:46;1.30;99.90
26049;DHT22;13822;51.568;5.086;2023-03-01T09:10:48;1.50;99.90
26049;DHT22;13822;51.568;5.086;2023-03-01T09:15:50;1.60;99.90
26049;DHT22;13822;51.568;5.086;2023-03-01T09:20:52;1.80;99.90
26049;DHT22;13822;51.568;5.086;2023-03-01T09:25:56;2.00;99.90
26049;DHT22;13822;51.568;5.086;2023-03-01T09:30:58;2.20;99.90
26049;DHT22;13822;51.568;5.086;2023-03-01T09:36:05;2.30;99.90
26049;DHT22;13822;51.568;5.086;2023-03-01T09:41:10;2.50;99.90
26049;DHT22;13822;51.568;5.086;2023-03-01T09:46:18;2.60;99.90
26049;DHT22;13822;51.568;5.086;2023-03-01T09:51:26;2.70;99.90
26049;DHT22;13822;51.568;5.086;2023-03-01T09:56:41;2.80;99.90
26049;DHT22;13822;51.568;5.086;2023-03-01T10:01:53;2.90;99.90
26049;DHT22;13822;51.568;5.086;2023-03-01T10:12:22;3.10;99.90
26049;DHT22;13822;51.568;5.086;2023-03-01T10:17:36;3.20;99.90
26049;DHT22;13822;51.568;5.086;2023-03-01T10:22:41;3.20;99.70
26049;DHT22;13822;51.568;5.086;2023-03-01T10:27:49;3.30;99.50
26049;DHT22;13822;51.568;5.086;2023-03-01T10:32:53;3.40;99.40
26049;DHT22;13822;51.568;5.086;2023-03-01T10:43:10;3.60;99.00
26049;DHT22;13822;51.568;5.086;2023-03-01T10:58:28;3.70;96.40
26049;DHT22;13822;51.568;5.086;2023-03-01T11:03:34;3.80;96.40
26049;DHT22;13822;51.568;5.086;2023-03-01T11:08:45;3.80;95.40
26049;DHT22;13822;51.568;5.086;2023-03-01T11:13:49;3.90;96.00
26049;DHT22;13822;51.568;5.086;2023-03-01T11:19:00;4.00;96.30
26049;DHT22;13822;51.568;5.086;2023-03-01T11:24:12;4.10;95.10
26049;DHT22;13822;51.568;5.086;2023-03-01T11:29:26;4.20;93.50
26049;DHT22;13822;51.568;5.086;2023-03-01T11:40:05;4.40;93.80
26049;DHT22;13822;51.568;5.086;2023-03-01T11:45:15;4.40;93.00
26049;DHT22;13822;51.568;5.086;2023-03-01T11:55:46;4.70;91.10
26049;DHT22;13822;51.568;5.086;2023-03-01T12:32:45;5.10;84.50
26049;DHT22;13822;51.568;5.086;2023-03-01T12:43:41;5.20;86.80
26049;DHT22;13822;51.568;5.086;2023-03-01T12:54:44;5.30;85.90
26049;DHT22;13822;51.568;5.086;2023-03-01T12:59:39;5.50;83.90
26049;DHT22;13822;51.568;5.086;2023-03-01T13:05:19;5.90;85.50
26049;DHT22;13822;51.568;5.086;2023-03-01T13:10:31;6.60;84.10
26049;DHT22;13822;51.568;5.086;2023-03-01T13:15:35;7.20;77.50
26049;DHT22;13822;51.568;5.086;2023-03-01T13:31:01;8.90;74.80
26049;DHT22;13822;51.568;5.086;2023-03-01T13:36:04;9.20;70.80
26049;DHT22;13822;51.568;5.086;2023-03-01T13:41:08;9.70;68.10
26049;DHT22;13822;51.568;5.086;2023-03-01T13:46:12;10.00;64.10
26049;DHT22;13822;51.568;5.086;2023-03-01T13:51:20;9.90;62.30
26049;DHT22;13822;51.568;5.086;2023-03-01T13:56:25;10.00;61.60
26049;DHT22;13822;51.568;5.086;2023-03-01T14:01:32;10.30;65.10
26049;DHT22;13822;51.568;5.086;2023-03-01T14:06:36;10.70;61.20
26049;DHT22;13822;51.568;5.086;2023-03-01T14:27:25;10.50;58.20
26049;DHT22;13822;51.568;5.086;2023-03-01T14:32:36;10.70;57.70
26049;DHT22;13822;51.568;5.086;2023-03-01T14:37:39;10.80;59.70
26049;DHT22;13822;51.568;5.086;2023-03-01T14:42:41;10.90;57.30
26049;DHT22;13822;51.568;5.086;2023-03-01T14:47:43;10.80;54.70
26049;DHT22;13822;51.568;5.086;2023-03-01T14:52:46;10.60;54.00
26049;DHT22;13822;51.568;5.086;2023-03-01T14:57:49;10.70;53.70
26049;DHT22;13822;51.568;5.086;2023-03-01T15:02:53;10.60;54.00
26049;DHT22;13822;51.568;5.086;2023-03-01T15:07:56;10.20;52.80
26049;DHT22;13822;51.568;5.086;2023-03-01T15:13:42;9.40;53.60
26049;DHT22;13822;51.568;5.086;2023-03-01T15:18:25;8.70;55.30
26049;DHT22;13822;51.568;5.086;2023-03-01T15:23:28;8.80;57.20
26049;DHT22;13822;51.568;5.086;2023-03-01T15:28:33;9.00;56.90
26049;DHT22;13822;51.568;5.086;2023-03-01T15:33:37;9.20;56.50
26049;DHT22;13822;51.568;5.086;2023-03-01T15:38:55;9.20;55.50
26049;DHT22;13822;51.568;5.086;2023-03-01T15:44:00;9.40;54.50
26049;DHT22;13822;51.568;5.086;2023-03-01T15:49:05;9.30;53.00
26049;DHT22;13822;51.568;5.086;2023-03-01T15:54:27;9.20;53.20
26049;DHT22;13822;51.568;5.086;2023-03-01T15:59:30;9.00;54.20
26049;DHT22;13822;51.568;5.086;2023-03-01T16:04:31;9.00;56.80
26049;DHT22;13822;51.568;5.086;2023-03-01T16:09:34;8.80;55.60
26049;DHT22;13822;51.568;5.086;2023-03-01T16:14:36;8.40;56.50
26049;DHT22;13822;51.568;5.086;2023-03-01T16:19:37;8.10;57.20
26049;DHT22;13822;51.568;5.086;2023-03-01T16:24:39;8.10;57.50
26049;DHT22;13822;51.568;5.086;2023-03-01T16:29:42;7.90;57.20
26049;DHT22;13822;51.568;5.086;2023-03-01T16:34:44;7.60;58.10
26049;DHT22;13822;51.568;5.086;2023-03-01T16:39:49;7.40;59.50
26049;DHT22;13822;51.568;5.086;2023-03-01T16:44:55;7.20;60.50
26049;DHT22;13822;51.568;5.086;2023-03-01T16:49:57;7.00;61.20
26049;DHT22;13822;51.568;5.086;2023-03-01T16:54:59;6.60;61.50
26049;DHT22;13822;51.568;5.086;2023-03-01T17:00:01;6.50;62.40
26049;DHT22;13822;51.568;5.086;2023-03-01T17:05:07;6.30;63.00
26049;DHT22;13822;51.568;5.086;2023-03-01T17:10:09;6.20;63.90
26049;DHT22;13822;51.568;5.086;2023-03-01T17:15:11;6.00;64.70
26049;DHT22;13822;51.568;5.086;2023-03-01T17:20:13;5.90;65.20
26049;DHT22;13822;51.568;5.086;2023-03-01T17:25:15;5.80;65.60
26049;DHT22;13822;51.568;5.086;2023-03-01T17:30:17;5.70;67.10
26049;DHT22;13822;51.568;5.086;2023-03-01T17:35:19;5.60;67.30
26049;DHT22;13822;51.568;5.086;2023-03-01T17:40:22;5.50;67.50
26049;DHT22;13822;51.568;5.086;2023-03-01T17:45:24;5.40;67.80
26049;DHT22;13822;51.568;5.086;2023-03-01T17:50:26;5.30;68.50
26049;DHT22;13822;51.568;5.086;2023-03-01T17:55:28;5.30;69.20
26049;DHT22;13822;51.568;5.086;2023-03-01T18:00:30;5.10;69.10
26049;DHT22;13822;51.568;5.086;2023-03-01T18:05:32;5.10;69.40
